createdAt,value
2018-09-16T00:00:16.522Z,2.30
2018-09-16T00:01:16.442Z,2.30
2018-09-16T00:02:16.332Z,2.30
2018-09-16T00:03:16.233Z,2.30
2018-09-16T00:04:16.140Z,2.20
2018-09-16T00:05:16.144Z,1.90
2018-09-16T00:06:15.964Z,1.90
2018-09-16T00:07:15.851Z,2.00
2018-09-16T00:08:15.762Z,2.00
2018-09-16T00:09:15.659Z,1.90
2018-09-16T00:10:15.566Z,1.80
2018-09-16T00:11:15.488Z,2.30
2018-09-16T00:12:15.375Z,2.20
2018-09-16T00:13:15.279Z,2.10
2018-09-16T00:14:15.187Z,1.80
2018-09-16T00:15:15.090Z,1.90
2018-09-16T00:16:15.008Z,1.70
2018-09-16T00:17:14.899Z,1.90
2018-09-16T00:18:14.804Z,2.00
2018-09-16T00:19:14.706Z,2.00
2018-09-16T00:20:14.610Z,2.10
2018-09-16T00:21:14.532Z,2.20
2018-09-16T00:22:14.419Z,1.90
2018-09-16T00:23:14.326Z,2.00
2018-09-16T00:24:14.230Z,1.90
2018-09-16T00:25:14.136Z,1.90
2018-09-16T00:26:14.056Z,1.90
2018-09-16T00:27:13.945Z,1.90
2018-09-16T00:28:13.852Z,1.70
2018-09-16T00:29:13.753Z,2.10
2018-09-16T00:30:13.662Z,1.80
2018-09-16T00:31:13.582Z,2.00
2018-09-16T00:32:13.468Z,2.20
2018-09-16T00:33:13.370Z,1.90
2018-09-16T00:34:13.279Z,1.70
2018-09-16T00:35:13.181Z,2.10
2018-09-16T00:36:13.103Z,1.90
2018-09-16T00:37:12.992Z,1.90
2018-09-16T00:38:12.894Z,2.00
2018-09-16T00:39:12.801Z,1.90
2018-09-16T00:40:12.705Z,1.80
2018-09-16T00:41:12.613Z,1.90
2018-09-16T00:42:12.536Z,1.80
2018-09-16T00:43:12.418Z,1.80
2018-09-16T00:44:12.328Z,1.90
2018-09-16T00:45:12.231Z,1.80
2018-09-16T00:46:12.137Z,2.00
2018-09-16T00:47:12.053Z,1.90
2018-09-16T00:48:11.943Z,2.00
2018-09-16T00:49:11.845Z,2.10
2018-09-16T00:50:11.755Z,1.90
2018-09-16T00:51:11.658Z,2.00
2018-09-16T00:52:11.578Z,2.00
2018-09-16T00:53:11.470Z,2.00
2018-09-16T00:54:11.370Z,2.00
2018-09-16T00:55:11.274Z,2.00
2018-09-16T00:56:11.182Z,1.90
2018-09-16T00:57:11.099Z,2.10
2018-09-16T00:58:10.990Z,2.00
2018-09-16T00:59:10.895Z,2.10
2018-09-16T01:00:10.797Z,2.00
2018-09-16T01:01:10.704Z,1.90
2018-09-16T01:02:10.623Z,2.00
2018-09-16T01:03:10.510Z,1.90
2018-09-16T01:04:10.415Z,1.70
2018-09-16T01:05:10.322Z,2.00
2018-09-16T01:06:10.226Z,2.10
2018-09-16T01:07:10.147Z,1.90
2018-09-16T01:08:10.038Z,1.90
2018-09-16T01:09:09.943Z,2.30
2018-09-16T01:10:09.847Z,2.40
2018-09-16T01:11:09.748Z,2.20
2018-09-16T01:12:09.668Z,2.20
2018-09-16T01:13:09.561Z,2.10
2018-09-16T01:14:09.465Z,2.10
2018-09-16T01:15:09.367Z,2.30
2018-09-16T01:16:09.271Z,2.30
2018-09-16T01:17:09.192Z,2.40
2018-09-16T01:18:09.083Z,2.40
2018-09-16T01:19:08.985Z,2.20
2018-09-16T01:20:08.908Z,1.90
2018-09-16T01:21:08.793Z,2.30
2018-09-16T01:22:08.716Z,2.30
2018-09-16T01:23:08.602Z,2.30
2018-09-16T01:24:08.506Z,2.50
2018-09-16T01:25:08.412Z,2.50
2018-09-16T01:26:08.317Z,2.70
2018-09-16T01:27:08.220Z,2.40
2018-09-16T01:28:08.243Z,3.00
2018-09-16T01:29:08.030Z,2.60
2018-09-16T01:30:07.933Z,2.60
2018-09-16T01:31:07.841Z,2.70
2018-09-16T01:32:07.742Z,2.30
2018-09-16T01:33:07.662Z,2.40
2018-09-16T01:34:07.554Z,2.30
2018-09-16T01:35:07.562Z,2.50
2018-09-16T01:36:07.363Z,2.70
2018-09-16T01:37:07.266Z,2.70
2018-09-16T01:38:07.187Z,2.50
2018-09-16T01:39:07.074Z,2.60
2018-09-16T01:40:06.979Z,2.50
2018-09-16T01:41:06.887Z,2.30
2018-09-16T01:42:06.887Z,2.40
2018-09-16T01:43:06.709Z,2.60
2018-09-16T01:44:06.599Z,2.40
2018-09-16T01:45:06.503Z,2.50
2018-09-16T01:46:06.407Z,2.60
2018-09-16T01:47:06.318Z,2.40
2018-09-16T01:48:06.230Z,2.50
2018-09-16T01:49:06.232Z,2.60
2018-09-16T01:50:06.025Z,2.70
2018-09-16T01:51:05.928Z,2.60
2018-09-16T01:52:05.831Z,2.70
2018-09-16T01:53:05.752Z,2.90
2018-09-16T01:54:05.640Z,2.40
2018-09-16T01:55:05.551Z,2.60
2018-09-16T01:56:05.551Z,2.50
2018-09-16T01:57:05.356Z,2.70
2018-09-16T01:58:05.273Z,2.50
2018-09-16T01:59:05.162Z,2.50
2018-09-16T02:00:05.066Z,2.60
2018-09-16T02:01:04.974Z,2.50
2018-09-16T02:02:04.879Z,2.50
2018-09-16T02:03:04.896Z,2.70
2018-09-16T02:04:04.682Z,2.50
2018-09-16T02:05:04.592Z,2.70
2018-09-16T02:06:04.495Z,2.40
2018-09-16T02:07:04.400Z,2.70
2018-09-16T02:08:04.318Z,2.60
2018-09-16T02:09:04.205Z,2.50
2018-09-16T02:10:04.110Z,2.70
2018-09-16T02:11:04.015Z,2.70
2018-09-16T02:12:03.923Z,2.70
2018-09-16T02:13:04.258Z,2.80
2018-09-16T02:14:03.728Z,2.70
2018-09-16T02:15:03.633Z,2.60
2018-09-16T02:16:03.535Z,2.70
2018-09-16T02:17:03.437Z,2.70
2018-09-16T02:18:03.462Z,2.60
2018-09-16T02:19:03.245Z,2.50
2018-09-16T02:20:03.159Z,2.70
2018-09-16T02:21:03.058Z,2.40
2018-09-16T02:22:02.959Z,2.40
2018-09-16T02:23:02.883Z,2.80
2018-09-16T02:24:02.769Z,2.50
2018-09-16T02:25:02.769Z,2.50
2018-09-16T02:26:02.576Z,2.70
2018-09-16T02:27:02.480Z,2.50
2018-09-16T02:28:02.384Z,2.50
2018-09-16T02:29:02.306Z,2.70
2018-09-16T02:30:02.254Z,2.70
2018-09-16T02:31:02.096Z,2.60
2018-09-16T02:32:02.105Z,2.50
2018-09-16T02:33:01.910Z,2.60
2018-09-16T02:34:01.829Z,2.90
2018-09-16T02:35:01.714Z,2.60
2018-09-16T02:36:01.621Z,2.70
2018-09-16T02:37:01.524Z,2.50
2018-09-16T02:38:01.482Z,2.70
2018-09-16T02:39:01.464Z,2.70
2018-09-16T02:40:01.237Z,2.80
2018-09-16T02:41:01.138Z,2.90
2018-09-16T02:42:01.042Z,2.90
2018-09-16T02:43:00.948Z,2.30
2018-09-16T02:44:00.872Z,2.50
2018-09-16T02:45:00.756Z,2.80
2018-09-16T02:46:00.764Z,2.70
2018-09-16T02:47:00.568Z,2.50
2018-09-16T02:48:00.475Z,2.30
2018-09-16T02:49:00.389Z,2.30
2018-09-16T02:50:00.275Z,2.60
2018-09-16T02:51:00.186Z,2.50
2018-09-16T02:52:00.085Z,2.50
2018-09-16T02:53:00.093Z,2.40
2018-09-16T02:53:59.908Z,2.50
2018-09-16T02:54:59.794Z,2.50
2018-09-16T02:55:59.701Z,2.50
2018-09-16T02:56:59.605Z,2.70
2018-09-16T02:57:59.511Z,2.50
2018-09-16T02:58:59.449Z,2.60
2018-09-16T02:59:59.437Z,2.80
2018-09-16T03:00:59.219Z,2.70
2018-09-16T03:01:59.124Z,2.70
2018-09-16T03:02:59.027Z,2.50
2018-09-16T03:03:58.945Z,2.80
2018-09-16T03:04:58.838Z,2.80
2018-09-16T03:05:58.738Z,2.60
2018-09-16T03:06:58.742Z,2.60
2018-09-16T03:07:58.548Z,2.70
2018-09-16T03:08:58.472Z,2.50
2018-09-16T03:09:58.356Z,3.00
2018-09-16T03:10:58.259Z,2.80
2018-09-16T03:11:58.163Z,2.70
2018-09-16T03:12:58.070Z,2.80
2018-09-16T03:13:57.988Z,2.80
2018-09-16T03:14:57.877Z,2.60
2018-09-16T03:15:57.781Z,2.40
2018-09-16T03:16:57.681Z,2.70
2018-09-16T03:17:57.583Z,2.50
2018-09-16T03:18:57.564Z,2.60
2018-09-16T03:19:57.393Z,2.60
2018-09-16T03:20:57.300Z,2.70
2018-09-16T03:21:57.200Z,2.60
2018-09-16T03:22:57.105Z,2.50
2018-09-16T03:23:57.031Z,2.60
2018-09-16T03:24:56.914Z,2.70
2018-09-16T03:25:56.823Z,2.60
2018-09-16T03:26:56.718Z,2.70
2018-09-16T03:27:56.623Z,2.70
2018-09-16T03:28:56.544Z,2.50
2018-09-16T03:29:56.431Z,2.40
2018-09-16T03:30:56.336Z,2.80
2018-09-16T03:31:56.240Z,2.60
2018-09-16T03:32:56.144Z,2.60
2018-09-16T03:33:56.061Z,2.90
2018-09-16T03:34:55.953Z,2.50
2018-09-16T03:35:55.860Z,2.50
2018-09-16T03:36:55.761Z,2.60
2018-09-16T03:37:55.667Z,2.50
2018-09-16T03:38:55.580Z,2.60
2018-09-16T03:39:55.469Z,2.80
2018-09-16T03:40:55.379Z,2.40
2018-09-16T03:41:55.282Z,2.70
2018-09-16T03:42:55.183Z,2.90
2018-09-16T03:43:55.099Z,2.50
2018-09-16T03:44:54.990Z,2.50
2018-09-16T03:45:54.894Z,2.50
2018-09-16T03:46:54.859Z,2.70
2018-09-16T03:47:54.714Z,2.40
2018-09-16T03:48:54.619Z,2.60
2018-09-16T03:49:54.515Z,2.30
2018-09-16T03:50:54.563Z,2.50
2018-09-16T03:51:54.314Z,2.70
2018-09-16T03:52:54.217Z,2.40
2018-09-16T03:53:54.156Z,2.50
2018-09-16T03:54:54.038Z,2.40
2018-09-16T03:55:53.984Z,2.60
2018-09-16T03:56:53.836Z,2.50
2018-09-16T03:57:53.741Z,2.50
2018-09-16T03:58:53.659Z,2.20
2018-09-16T03:59:53.544Z,2.50
2018-09-16T04:00:53.447Z,2.40
2018-09-16T04:01:53.352Z,2.40
2018-09-16T04:02:53.254Z,2.20
2018-09-16T04:03:53.176Z,2.50
2018-09-16T04:04:53.063Z,2.20
2018-09-16T04:05:52.971Z,2.30
2018-09-16T04:06:52.874Z,2.20
2018-09-16T04:07:52.776Z,2.20
2018-09-16T04:08:52.696Z,2.20
2018-09-16T04:09:52.579Z,2.00
2018-09-16T04:10:52.483Z,2.10
2018-09-16T04:11:52.389Z,2.00
2018-09-16T04:12:52.297Z,2.30
2018-09-16T04:13:56.976Z,2.20
2018-09-16T04:14:52.098Z,2.20
2018-09-16T04:15:52.006Z,2.20
2018-09-16T04:16:51.912Z,2.30
2018-09-16T04:17:51.811Z,2.20
2018-09-16T04:18:51.716Z,2.10
2018-09-16T04:19:51.636Z,2.60
2018-09-16T04:20:51.534Z,2.40
2018-09-16T04:21:51.424Z,2.50
2018-09-16T04:22:51.329Z,2.30
2018-09-16T04:23:51.238Z,2.40
2018-09-16T04:24:51.151Z,2.40
2018-09-16T04:25:51.041Z,2.20
2018-09-16T04:26:50.943Z,2.30
2018-09-16T04:27:50.844Z,2.50
2018-09-16T04:28:50.751Z,2.10
2018-09-16T04:29:50.768Z,2.00
2018-09-16T04:30:50.557Z,2.50
2018-09-16T04:31:50.457Z,2.40
2018-09-16T04:32:50.364Z,2.30
2018-09-16T04:33:50.273Z,2.20
2018-09-16T04:34:50.190Z,2.70
2018-09-16T04:35:50.076Z,2.30
2018-09-16T04:36:50.100Z,2.30
2018-09-16T04:37:49.879Z,2.30
2018-09-16T04:38:49.783Z,2.30
2018-09-16T04:39:49.702Z,2.50
2018-09-16T04:40:49.590Z,2.10
2018-09-16T04:41:49.495Z,2.30
2018-09-16T04:42:49.398Z,2.10
2018-09-16T04:43:49.401Z,2.00
2018-09-16T04:44:49.244Z,2.30
2018-09-16T04:45:49.110Z,2.30
2018-09-16T04:46:49.009Z,2.40
2018-09-16T04:47:48.919Z,2.10
2018-09-16T04:48:48.821Z,2.30
2018-09-16T04:49:48.753Z,2.10
2018-09-16T04:50:48.725Z,2.00
2018-09-16T04:51:48.531Z,2.00
2018-09-16T04:52:48.435Z,1.70
2018-09-16T04:53:48.338Z,2.30
2018-09-16T04:54:48.261Z,2.10
2018-09-16T04:55:48.145Z,2.10
2018-09-16T04:56:48.055Z,2.20
2018-09-16T04:57:48.054Z,2.00
2018-09-16T04:58:47.856Z,2.20
2018-09-16T04:59:47.775Z,2.00
2018-09-16T05:00:47.663Z,2.30
2018-09-16T05:01:47.568Z,1.90
2018-09-16T05:02:47.468Z,2.20
2018-09-16T05:03:47.372Z,2.20
2018-09-16T05:04:47.394Z,2.40
2018-09-16T05:05:47.186Z,2.30
2018-09-16T05:06:47.084Z,2.20
2018-09-16T05:07:46.987Z,2.30
2018-09-16T05:08:46.890Z,2.40
2018-09-16T05:09:46.813Z,2.30
2018-09-16T05:10:46.702Z,2.50
2018-09-16T05:11:46.710Z,2.70
2018-09-16T05:12:46.505Z,2.60
2018-09-16T05:13:46.414Z,2.70
2018-09-16T05:14:46.330Z,2.70
2018-09-16T05:15:46.217Z,2.70
2018-09-16T05:16:46.123Z,2.80
2018-09-16T05:17:46.023Z,3.10
2018-09-16T05:18:46.029Z,2.80
2018-09-16T05:19:45.847Z,2.90
2018-09-16T05:20:45.737Z,2.80
2018-09-16T05:21:45.643Z,2.90
2018-09-16T05:22:45.570Z,2.80
2018-09-16T05:23:45.444Z,3.10
2018-09-16T05:24:45.366Z,3.20
2018-09-16T05:25:45.356Z,3.20
2018-09-16T05:26:45.159Z,3.30
2018-09-16T05:27:45.061Z,3.30
2018-09-16T05:28:44.965Z,3.00
2018-09-16T05:29:44.885Z,3.30
2018-09-16T05:30:44.771Z,3.00
2018-09-16T05:31:44.676Z,3.00
2018-09-16T05:32:44.681Z,2.90
2018-09-16T05:33:44.485Z,3.20
2018-09-16T05:34:44.403Z,3.00
2018-09-16T05:35:44.304Z,3.10
2018-09-16T05:36:44.196Z,3.10
2018-09-16T05:37:44.105Z,3.00
2018-09-16T05:38:44.005Z,3.30
2018-09-16T05:39:43.922Z,3.10
2018-09-16T05:40:43.812Z,2.90
2018-09-16T05:41:43.716Z,2.70
2018-09-16T05:42:43.619Z,2.60
2018-09-16T05:43:43.525Z,2.80
2018-09-16T05:44:43.445Z,2.80
2018-09-16T05:45:43.335Z,2.70
2018-09-16T05:46:43.240Z,2.70
2018-09-16T05:47:43.141Z,2.60
2018-09-16T05:48:43.041Z,2.50
2018-09-16T05:49:42.962Z,2.60
2018-09-16T05:50:42.850Z,3.00
2018-09-16T05:51:42.756Z,2.80
2018-09-16T05:52:42.765Z,3.20
2018-09-16T05:53:42.563Z,2.90
2018-09-16T05:54:42.485Z,3.00
2018-09-16T05:55:42.372Z,2.70
2018-09-16T05:56:42.278Z,2.70
2018-09-16T05:57:42.186Z,2.70
2018-09-16T05:58:42.090Z,2.70
2018-09-16T05:59:42.006Z,2.50
2018-09-16T06:00:41.897Z,2.70
2018-09-16T06:01:41.800Z,2.40
2018-09-16T06:02:41.705Z,2.40
2018-09-16T06:03:41.608Z,2.50
2018-09-16T06:04:41.556Z,2.80
2018-09-16T06:05:41.436Z,2.40
2018-09-16T06:06:41.328Z,2.40
2018-09-16T06:07:41.231Z,2.10
2018-09-16T06:08:41.135Z,2.30
2018-09-16T06:09:41.049Z,2.50
2018-09-16T06:10:41.028Z,2.20
2018-09-16T06:11:40.851Z,1.80
2018-09-16T06:12:40.758Z,2.10
2018-09-16T06:13:40.665Z,1.90
2018-09-16T06:14:40.577Z,1.90
2018-09-16T06:15:40.489Z,2.10
2018-09-16T06:16:40.381Z,2.20
2018-09-16T06:17:40.289Z,2.30
2018-09-16T06:18:40.195Z,2.20
2018-09-16T06:19:40.103Z,2.50
2018-09-16T06:20:40.029Z,2.50
2018-09-16T06:21:39.916Z,2.50
2018-09-16T06:22:39.890Z,2.70
2018-09-16T06:23:39.732Z,2.40
2018-09-16T06:24:39.643Z,2.60
2018-09-16T06:25:39.564Z,2.30
2018-09-16T06:26:39.453Z,2.10
2018-09-16T06:27:39.366Z,2.20
2018-09-16T06:28:39.271Z,2.00
2018-09-16T06:29:39.187Z,2.20
2018-09-16T06:30:39.109Z,2.20
2018-09-16T06:31:39.002Z,2.10
2018-09-16T06:32:38.909Z,2.00
2018-09-16T06:33:38.869Z,1.90
2018-09-16T06:34:38.727Z,1.90
2018-09-16T06:35:38.653Z,2.00
2018-09-16T06:36:38.546Z,2.00
2018-09-16T06:37:38.456Z,1.90
2018-09-16T06:38:38.364Z,2.00
2018-09-16T06:39:38.276Z,2.00
2018-09-16T06:40:38.202Z,1.80
2018-09-16T06:41:38.095Z,1.90
2018-09-16T06:42:38.006Z,1.90
2018-09-16T06:43:37.917Z,1.90
2018-09-16T06:44:37.828Z,1.90
2018-09-16T06:45:37.755Z,2.00
2018-09-16T06:46:37.645Z,2.00
2018-09-16T06:47:37.557Z,1.90
2018-09-16T06:48:37.469Z,1.70
2018-09-16T06:49:37.382Z,1.70
2018-09-16T06:50:37.302Z,1.70
2018-09-16T06:51:37.196Z,1.90
2018-09-16T06:52:37.106Z,1.60
2018-09-16T06:53:37.018Z,1.80
2018-09-16T06:54:36.927Z,1.70
2018-09-16T06:55:36.854Z,1.90
2018-09-16T06:56:36.749Z,1.70
2018-09-16T06:57:36.659Z,1.60
2018-09-16T06:58:36.573Z,1.90
2018-09-16T06:59:36.483Z,1.90
2018-09-16T07:00:36.429Z,1.70
2018-09-16T07:01:36.304Z,1.80
2018-09-16T07:02:36.214Z,1.80
2018-09-16T07:03:36.125Z,1.90
2018-09-16T07:04:36.038Z,1.80
2018-09-16T07:05:35.964Z,1.80
2018-09-16T07:06:35.862Z,1.60
2018-09-16T07:07:35.772Z,1.80
2018-09-16T07:08:35.686Z,1.90
2018-09-16T07:09:35.596Z,1.70
2018-09-16T07:10:35.525Z,1.90
2018-09-16T07:11:35.420Z,2.00
2018-09-16T07:12:35.333Z,2.00
2018-09-16T07:13:35.245Z,1.90
2018-09-16T07:14:35.269Z,1.90
2018-09-16T07:15:35.086Z,1.90
2018-09-16T07:16:35.082Z,1.70
2018-09-16T07:17:34.892Z,1.80
2018-09-16T07:18:34.805Z,2.00
2018-09-16T07:19:34.718Z,1.70
2018-09-16T07:20:34.645Z,2.00
2018-09-16T07:21:34.541Z,1.90
2018-09-16T07:22:34.452Z,1.90
2018-09-16T07:23:34.365Z,2.00
2018-09-16T07:24:34.280Z,2.10
2018-09-16T07:25:34.210Z,1.90
2018-09-16T07:26:34.123Z,2.00
2018-09-16T07:27:34.015Z,1.90
2018-09-16T07:28:33.928Z,2.20
2018-09-16T07:29:33.842Z,2.00
2018-09-16T07:30:33.772Z,2.00
2018-09-16T07:31:33.667Z,1.90
2018-09-16T07:32:33.582Z,2.30
2018-09-16T07:33:33.520Z,2.30
2018-09-16T07:34:33.412Z,1.90
2018-09-16T07:35:33.337Z,2.10
2018-09-16T07:36:33.229Z,2.40
2018-09-16T07:37:33.144Z,2.10
2018-09-16T07:38:33.057Z,2.20
2018-09-16T07:39:32.967Z,2.00
2018-09-16T07:40:32.915Z,2.50
2018-09-16T07:41:32.799Z,1.90
2018-09-16T07:42:32.715Z,2.30
2018-09-16T07:43:32.621Z,2.10
2018-09-16T07:44:32.534Z,2.10
2018-09-16T07:45:32.451Z,1.90
2018-09-16T07:46:32.376Z,2.20
2018-09-16T07:47:32.273Z,2.20
2018-09-16T07:48:32.186Z,2.20
2018-09-16T07:49:32.105Z,2.20
2018-09-16T07:50:32.037Z,2.00
2018-09-16T07:51:31.927Z,2.00
2018-09-16T07:52:31.840Z,2.10
2018-09-16T07:53:31.755Z,2.30
2018-09-16T07:54:31.668Z,2.40
2018-09-16T07:55:31.583Z,2.10
2018-09-16T07:56:31.512Z,1.90
2018-09-16T07:57:31.406Z,2.10
2018-09-16T07:58:31.319Z,2.00
2018-09-16T07:59:31.236Z,1.80
2018-09-16T08:00:31.181Z,1.80
2018-09-16T08:01:31.080Z,2.00
2018-09-16T08:02:30.975Z,2.00
2018-09-16T08:03:31.201Z,1.90
2018-09-16T08:04:30.805Z,1.80
2018-09-16T08:05:30.771Z,2.00
2018-09-16T08:06:30.649Z,1.90
2018-09-16T08:07:30.549Z,1.90
2018-09-16T08:08:30.466Z,2.10
2018-09-16T08:09:30.397Z,2.10
2018-09-16T08:10:30.301Z,1.70
2018-09-16T08:11:30.223Z,2.00
2018-09-16T08:12:30.121Z,2.00
2018-09-16T08:13:30.041Z,1.90
2018-09-16T08:14:29.951Z,2.20
2018-09-16T08:15:29.868Z,2.00
2018-09-16T08:16:29.796Z,1.90
2018-09-16T08:17:29.804Z,2.10
2018-09-16T08:18:29.615Z,2.10
2018-09-16T08:19:29.532Z,2.00
2018-09-16T08:20:29.448Z,2.30
2018-09-16T08:21:29.376Z,2.30
2018-09-16T08:22:29.274Z,2.10
2018-09-16T08:23:29.199Z,2.00
2018-09-16T08:24:29.104Z,2.10
2018-09-16T08:25:29.024Z,2.20
2018-09-16T08:26:28.952Z,2.20
2018-09-16T08:27:28.855Z,2.10
2018-09-16T08:28:28.834Z,2.30
2018-09-16T08:29:28.687Z,2.00
2018-09-16T08:30:28.600Z,2.00
2018-09-16T08:31:28.535Z,1.90
2018-09-16T08:32:28.435Z,2.30
2018-09-16T08:33:28.349Z,2.00
2018-09-16T08:34:28.270Z,2.20
2018-09-16T08:35:28.183Z,2.20
2018-09-16T08:36:28.118Z,1.90
2018-09-16T08:37:28.020Z,2.20
2018-09-16T08:38:27.932Z,2.10
2018-09-16T08:39:27.851Z,1.90
2018-09-16T08:40:27.762Z,2.20
2018-09-16T08:41:27.695Z,2.00
2018-09-16T08:42:27.593Z,1.90
2018-09-16T08:43:27.513Z,1.90
2018-09-16T08:44:27.533Z,2.10
2018-09-16T08:45:27.383Z,2.00
2018-09-16T08:46:27.280Z,1.90
2018-09-16T08:47:27.178Z,1.80
2018-09-16T08:48:27.096Z,2.10
2018-09-16T08:49:27.011Z,2.10
2018-09-16T08:50:26.932Z,2.10
2018-09-16T08:51:26.960Z,1.80
2018-09-16T08:52:26.768Z,1.90
2018-09-16T08:53:26.679Z,1.70
2018-09-16T08:54:26.593Z,1.80
2018-09-16T08:55:26.512Z,1.80
2018-09-16T08:56:26.444Z,1.80
2018-09-16T08:57:26.464Z,2.00
2018-09-16T08:58:26.377Z,1.80
2018-09-16T08:59:26.190Z,1.90
2018-09-16T09:00:26.095Z,1.90
2018-09-16T09:01:26.031Z,2.00
2018-09-16T09:02:25.935Z,2.30
2018-09-16T09:03:25.850Z,1.80
2018-09-16T09:04:25.906Z,1.80
2018-09-16T09:05:25.700Z,1.90
2018-09-16T09:06:25.615Z,2.00
2018-09-16T09:07:25.516Z,2.20
2018-09-16T09:08:25.433Z,1.90
2018-09-16T09:09:25.351Z,1.80
2018-09-16T09:10:25.266Z,2.00
2018-09-16T09:11:25.209Z,1.90
2018-09-16T09:12:25.104Z,1.80
2018-09-16T09:13:25.020Z,2.00
2018-09-16T09:14:24.959Z,2.00
2018-09-16T09:15:24.853Z,1.80
2018-09-16T09:16:24.785Z,1.80
2018-09-16T09:17:24.686Z,1.90
2018-09-16T09:18:24.707Z,1.90
2018-09-16T09:19:24.523Z,2.00
2018-09-16T09:20:24.441Z,2.00
2018-09-16T09:21:24.374Z,2.00
2018-09-16T09:22:24.274Z,2.10
2018-09-16T09:23:24.217Z,2.10
2018-09-16T09:24:24.110Z,2.10
2018-09-16T09:25:24.132Z,2.20
2018-09-16T09:26:23.958Z,2.30
2018-09-16T09:27:23.862Z,2.10
2018-09-16T09:28:24.677Z,2.00
2018-09-16T09:29:23.695Z,2.20
2018-09-16T09:30:23.618Z,2.30
2018-09-16T09:31:23.550Z,2.30
2018-09-16T09:32:23.550Z,2.30
2018-09-16T09:33:23.368Z,2.00
2018-09-16T09:34:23.283Z,2.00
2018-09-16T09:35:23.200Z,2.10
2018-09-16T09:36:23.135Z,2.10
2018-09-16T09:37:23.034Z,2.10
2018-09-16T09:38:22.959Z,2.20
2018-09-16T09:39:22.998Z,1.90
2018-09-16T09:40:22.790Z,2.50
2018-09-16T09:41:22.706Z,2.10
2018-09-16T09:42:22.637Z,2.20
2018-09-16T09:43:22.544Z,1.90
2018-09-16T09:44:22.458Z,1.90
2018-09-16T09:45:22.376Z,2.20
2018-09-16T09:46:22.400Z,2.10
2018-09-16T09:47:22.226Z,2.40
2018-09-16T09:48:22.131Z,2.10
2018-09-16T09:49:22.051Z,2.30
2018-09-16T09:50:21.962Z,1.90
2018-09-16T09:51:21.882Z,2.30
2018-09-16T09:52:21.914Z,2.10
2018-09-16T09:53:21.770Z,2.50
2018-09-16T09:54:21.634Z,2.30
2018-09-16T09:55:21.549Z,1.90
2018-09-16T09:56:21.471Z,2.60
2018-09-16T09:57:21.403Z,2.30
2018-09-16T09:58:21.302Z,2.20
2018-09-16T09:59:21.274Z,2.60
2018-09-16T10:00:21.235Z,2.20
2018-09-16T10:01:21.055Z,2.00
2018-09-16T10:02:21.031Z,2.20
2018-09-16T10:03:20.889Z,2.20
2018-09-16T10:04:20.810Z,2.10
2018-09-16T10:05:20.722Z,2.20
2018-09-16T10:06:20.641Z,2.40
2018-09-16T10:07:20.678Z,2.50
2018-09-16T10:08:20.474Z,2.70
2018-09-16T10:09:20.393Z,2.10
2018-09-16T10:10:20.313Z,2.40
2018-09-16T10:11:20.228Z,4.20
2018-09-16T10:12:20.161Z,1.90
2018-09-16T10:13:20.193Z,1.90
2018-09-16T10:14:20.028Z,2.40
2018-09-16T10:15:19.895Z,2.40
2018-09-16T10:16:19.815Z,2.30
2018-09-16T10:17:19.751Z,2.20
2018-09-16T10:18:19.648Z,2.40
2018-09-16T10:19:19.566Z,2.40
2018-09-16T10:20:19.484Z,2.30
2018-09-16T10:21:19.402Z,2.50
2018-09-16T10:22:19.336Z,2.60
2018-09-16T10:23:19.240Z,2.10
2018-09-16T10:24:19.194Z,2.20
2018-09-16T10:25:19.085Z,2.30
2018-09-16T10:26:18.990Z,2.20
2018-09-16T10:27:18.925Z,2.00
2018-09-16T10:28:18.828Z,2.00
2018-09-16T10:29:18.745Z,2.20
2018-09-16T10:30:18.661Z,2.10
2018-09-16T10:31:18.578Z,2.10
2018-09-16T10:32:18.512Z,2.40
2018-09-16T10:33:18.415Z,2.40
2018-09-16T10:34:18.339Z,2.50
2018-09-16T10:35:18.251Z,2.30
2018-09-16T10:36:18.169Z,2.10
2018-09-16T10:37:18.104Z,2.20
2018-09-16T10:38:18.037Z,2.20
2018-09-16T10:39:17.921Z,2.30
2018-09-16T10:40:17.841Z,2.00
2018-09-16T10:41:17.759Z,1.90
2018-09-16T10:42:17.692Z,2.30
2018-09-16T10:43:17.595Z,2.30
2018-09-16T10:44:17.509Z,2.40
2018-09-16T10:45:17.428Z,2.30
2018-09-16T10:46:17.344Z,2.40
2018-09-16T10:47:17.279Z,2.40
2018-09-16T10:48:17.195Z,2.00
2018-09-16T10:49:17.099Z,2.10
2018-09-16T10:50:17.020Z,2.20
2018-09-16T10:51:16.935Z,2.30
2018-09-16T10:52:16.870Z,2.00
2018-09-16T10:53:16.768Z,2.10
2018-09-16T10:54:16.687Z,2.40
2018-09-16T10:55:16.604Z,2.20
2018-09-16T10:56:16.519Z,2.20
2018-09-16T10:57:16.457Z,1.90
2018-09-16T10:58:16.357Z,2.20
2018-09-16T10:59:16.288Z,1.70
2018-09-16T11:00:16.188Z,1.90
2018-09-16T11:01:16.109Z,2.20
2018-09-16T11:02:16.040Z,2.00
2018-09-16T11:03:15.940Z,2.00
2018-09-16T11:04:15.865Z,2.30
2018-09-16T11:05:15.776Z,2.20
2018-09-16T11:06:15.694Z,2.10
2018-09-16T11:07:15.628Z,1.90
2018-09-16T11:08:15.602Z,2.40
2018-09-16T11:09:15.447Z,2.20
2018-09-16T11:10:15.388Z,2.10
2018-09-16T11:11:15.281Z,2.00
2018-09-16T11:12:15.216Z,2.00
2018-09-16T11:13:15.116Z,2.00
2018-09-16T11:14:15.030Z,2.00
2018-09-16T11:15:14.947Z,2.00
2018-09-16T11:16:14.868Z,2.10
2018-09-16T11:17:14.801Z,2.00
2018-09-16T11:18:14.701Z,1.80
2018-09-16T11:19:14.632Z,2.20
2018-09-16T11:20:14.540Z,2.10
2018-09-16T11:21:14.456Z,2.00
2018-09-16T11:22:14.562Z,1.90
2018-09-16T11:23:14.306Z,2.00
2018-09-16T11:24:14.207Z,2.00
2018-09-16T11:25:14.126Z,1.80
2018-09-16T11:26:14.043Z,1.90
2018-09-16T11:27:13.978Z,2.10
2018-09-16T11:28:13.886Z,1.90
2018-09-16T11:29:13.798Z,2.00
2018-09-16T11:30:13.824Z,1.80
2018-09-16T11:31:13.632Z,2.10
2018-09-16T11:32:13.552Z,1.90
2018-09-16T11:33:13.489Z,2.00
2018-09-16T11:34:13.388Z,1.90
2018-09-16T11:35:13.305Z,2.00
2018-09-16T11:36:13.224Z,2.00
2018-09-16T11:37:13.241Z,1.90
2018-09-16T11:38:13.079Z,2.00
2018-09-16T11:39:12.979Z,2.20
2018-09-16T11:40:12.895Z,1.90
2018-09-16T11:41:12.816Z,1.90
2018-09-16T11:42:12.735Z,2.10
2018-09-16T11:43:12.666Z,2.10
2018-09-16T11:44:12.674Z,2.00
2018-09-16T11:45:12.486Z,1.80
2018-09-16T11:46:12.404Z,2.00
2018-09-16T11:47:12.323Z,1.90
2018-09-16T11:48:12.261Z,2.20
2018-09-16T11:49:12.170Z,2.20
2018-09-16T11:50:12.082Z,2.10
2018-09-16T11:51:12.092Z,1.90
2018-09-16T11:52:11.914Z,2.10
2018-09-16T11:53:11.849Z,1.90
2018-09-16T11:54:11.758Z,2.10
2018-09-16T11:55:11.672Z,1.80
2018-09-16T11:56:11.593Z,2.00
2018-09-16T11:57:11.510Z,2.10
2018-09-16T11:58:11.545Z,2.00
2018-09-16T11:59:11.341Z,2.00
2018-09-16T12:00:11.265Z,2.10
2018-09-16T12:01:11.178Z,1.70
2018-09-16T12:02:11.098Z,2.10
2018-09-16T12:03:11.031Z,1.90
2018-09-16T12:04:11.033Z,1.90
2018-09-16T12:05:10.911Z,2.20
2018-09-16T12:06:10.768Z,1.80
2018-09-16T12:07:10.686Z,2.20
2018-09-16T12:08:10.622Z,2.10
2018-09-16T12:09:10.528Z,1.80
2018-09-16T12:10:10.441Z,2.10
2018-09-16T12:11:10.464Z,1.80
2018-09-16T12:12:10.280Z,1.90
2018-09-16T12:13:10.214Z,1.60
2018-09-16T12:14:10.114Z,1.80
2018-09-16T12:15:10.039Z,2.00
2018-09-16T12:16:09.963Z,1.90
2018-09-16T12:17:09.871Z,2.10
2018-09-16T12:18:09.807Z,2.20
2018-09-16T12:19:09.706Z,2.10
2018-09-16T12:20:09.628Z,2.30
2018-09-16T12:21:09.543Z,2.00
2018-09-16T12:22:09.495Z,2.00
2018-09-16T12:23:09.400Z,2.00
2018-09-16T12:24:09.298Z,1.90
2018-09-16T12:25:09.214Z,2.30
2018-09-16T12:26:09.131Z,1.80
2018-09-16T12:27:09.051Z,1.90
2018-09-16T12:28:08.986Z,1.90
2018-09-16T12:29:08.887Z,2.10
2018-09-16T12:30:08.803Z,1.90
2018-09-16T12:31:08.832Z,1.90
2018-09-16T12:32:08.641Z,2.00
2018-09-16T12:33:08.574Z,2.10
2018-09-16T12:34:08.472Z,2.20
2018-09-16T12:35:08.393Z,1.80
2018-09-16T12:36:08.310Z,1.90
2018-09-16T12:37:08.228Z,1.80
2018-09-16T12:38:08.261Z,1.80
2018-09-16T12:39:08.063Z,1.80
2018-09-16T12:40:07.982Z,1.90
2018-09-16T12:41:07.898Z,1.80
2018-09-16T12:42:07.814Z,1.90
2018-09-16T12:43:07.751Z,1.80
2018-09-16T12:44:07.754Z,1.90
2018-09-16T12:45:07.628Z,2.00
2018-09-16T12:46:07.485Z,1.90
2018-09-16T12:47:07.407Z,2.10
2018-09-16T12:48:07.337Z,2.10
2018-09-16T12:49:07.239Z,2.10
2018-09-16T12:50:07.155Z,2.10
2018-09-16T12:51:07.075Z,2.00
2018-09-16T12:52:06.994Z,1.90
2018-09-16T12:53:06.925Z,2.20
2018-09-16T12:54:06.825Z,2.10
2018-09-16T12:55:06.742Z,1.90
2018-09-16T12:56:06.659Z,2.10
2018-09-16T12:57:06.651Z,2.00
2018-09-16T12:58:06.518Z,2.10
2018-09-16T12:59:06.416Z,1.90
2018-09-16T13:00:06.331Z,2.00
2018-09-16T13:01:06.249Z,1.70
2018-09-16T13:02:06.166Z,2.30
2018-09-16T13:03:06.096Z,2.20
2018-09-16T13:04:06.002Z,2.10
2018-09-16T13:05:06.009Z,2.00
2018-09-16T13:06:05.831Z,2.00
2018-09-16T13:07:05.750Z,2.10
2018-09-16T13:08:05.673Z,1.80
2018-09-16T13:09:05.574Z,2.00
2018-09-16T13:10:05.486Z,2.20
2018-09-16T13:11:05.402Z,2.10
2018-09-16T13:12:05.418Z,2.00
2018-09-16T13:13:05.320Z,2.10
2018-09-16T13:14:05.146Z,2.20
2018-09-16T13:15:05.061Z,2.10
2018-09-16T13:16:04.981Z,2.00
2018-09-16T13:17:04.890Z,2.00